Time;durP1;ratioP1;P1;durP2;ratioP2;P2;SDS_P1;SDS_P2;PMS_P1;PMS_P2;Temp;Humidity;BMP_temperature;BMP_pressure;BME280_temperature;BME280_humidity;BME280_pressure;Samples;Min_cycle;Max_cycle;Signal;HPM_P1;HPM_P2
2022/06/11 00:00:24;;;;;;;;;8.67;8.67;;;;;17.91;75.29;101732.63;5082225;27;45413;-74
2022/06/11 00:02:49;;;;;;;;;9.67;9.67;;;;;17.84;75.23;101736.31;5082231;27;45372;-74
2022/06/11 00:05:15;;;;;;;;;14.67;14.33;;;;;17.77;75.68;101712.06;5091051;27;45283;-74
2022/06/11 00:07:41;;;;;;;;;11.00;10.67;;;;;17.82;75.53;101730.28;5082169;28;45574;-75
2022/06/11 00:10:08;;;;;;;;;11.67;11.67;;;;;17.74;75.51;101724.06;5082095;28;45486;-74
2022/06/11 00:12:34;;;;;;;;;9.67;9.67;;;;;17.75;75.38;101725.69;5082079;27;45341;-74
2022/06/11 00:15:01;;;;;;;;;11.00;11.00;;;;;17.69;75.63;101712.25;5081915;27;47466;-74
2022/06/11 00:17:27;;;;;;;;;11.00;11.00;;;;;17.66;75.75;101711.59;5080905;27;45302;-75
2022/06/11 00:19:53;;;;;;;;;11.00;11.00;;;;;17.68;75.88;101719.47;5081820;27;45417;-74
2022/06/11 00:22:21;;;;;;;;;12.33;12.00;;;;;17.62;76.17;101712.19;5080547;28;47244;-74
2022/06/11 00:24:47;;;;;;;;;11.33;11.33;;;;;17.69;76.19;101725.69;5097582;27;47554;-75
2022/06/11 00:27:14;;;;;;;;;13.33;13.00;;;;;17.66;76.13;101726.91;5080201;28;45511;-74
2022/06/11 00:29:42;;;;;;;;;12.00;11.00;;;;;17.64;76.36;101718.22;5081957;27;45323;-74
2022/06/11 00:32:10;;;;;;;;;11.00;11.00;;;;;17.58;76.69;101719.84;5081639;27;45338;-74
2022/06/11 00:34:37;;;;;;;;;11.00;10.67;;;;;17.61;76.50;101724.81;5081175;27;45899;-74
2022/06/11 00:37:03;;;;;;;;;14.00;13.67;;;;;17.59;76.37;101726.00;5081762;27;45283;-74
2022/06/11 00:39:32;;;;;;;;;12.00;12.00;;;;;17.55;76.76;101725.59;5081531;27;45388;-75
2022/06/11 00:42:11;;;;;;;;;13.00;13.00;;;;;17.52;77.40;101723.31;5081529;27;45354;-74
2022/06/11 00:44:38;;;;;;;;;13.00;12.33;;;;;17.48;77.32;101720.16;5081286;27;45326;-75
2022/06/11 00:47:22;;;;;;;;;11.33;10.67;;;;;17.47;77.10;101726.56;5081639;27;45568;-74
2022/06/11 00:49:54;;;;;;;;;8.67;8.67;;;;;17.45;77.46;101717.88;5096896;27;45462;-74
2022/06/11 00:52:31;;;;;;;;;11.00;10.33;;;;;17.43;77.06;101725.31;5081511;27;45310;-74
2022/06/11 00:55:11;;;;;;;;;12.33;12.33;;;;;17.42;77.57;101729.03;5081056;28;46229;-74
2022/06/11 00:57:43;;;;;;;;;11.00;11.00;;;;;17.38;77.64;101719.69;5081231;27;45429;-74
2022/06/11 01:00:16;;;;;;;;;12.67;11.00;;;;;17.39;77.48;101727.56;5081301;27;45312;-74
2022/06/11 01:02:46;;;;;;;;;14.00;14.00;;;;;17.22;78.08;101694.78;5081188;27;45952;-74
2022/06/11 01:05:25;;;;;;;;;10.67;10.67;;;;;17.35;78.00;101725.44;5090248;27;46111;-74
2022/06/11 01:08:12;;;;;;;;;12.00;11.33;;;;;17.33;77.96;101720.28;5081108;28;45406;-75
2022/06/11 01:10:58;;;;;;;;;9.67;9.67;;;;;17.32;77.61;101725.84;5081151;27;45565;-74
2022/06/11 01:13:35;;;;;;;;;12.33;10.33;;;;;17.26;77.85;101712.19;5080962;28;45317;-75
2022/06/11 01:16:08;;;;;;;;;10.33;10.33;;;;;17.26;77.43;101720.22;5081062;28;46240;-75
2022/06/11 01:18:38;;;;;;;;;12.00;10.33;;;;;17.22;77.77;101715.44;5080789;27;45354;-74
2022/06/11 01:21:22;;;;;;;;;11.67;11.67;;;;;17.20;78.32;101714.78;5081301;27;45307;-75
2022/06/11 01:24:13;;;;;;;;;12.00;10.33;;;;;17.18;78.20;101716.88;5077868;28;47562;-74
2022/06/11 01:27:15;;;;;;;;;12.67;12.67;;;;;17.16;77.80;101719.75;5080780;27;45258;-75
2022/06/11 01:29:46;;;;;;;;;10.67;10.67;;;;;17.13;77.89;101720.13;5080848;28;45301;-75
2022/06/11 01:32:19;;;;;;;;;11.67;10.33;;;;;17.06;78.04;101711.97;5080859;28;45323;-75
2022/06/11 01:34:51;;;;;;;;;12.33;11.67;;;;;17.09;78.47;101721.56;5080378;27;45311;-74
2022/06/11 01:37:23;;;;;;;;;10.33;10.33;;;;;17.01;77.99;101709.06;5080723;27;45250;-75
2022/06/11 01:39:55;;;;;;;;;13.00;13.00;;;;;16.98;77.95;101715.66;5080680;27;45360;-74
2022/06/11 01:42:31;;;;;;;;;10.00;8.33;;;;;17.01;78.60;101720.63;5080763;28;45413;-75
2022/06/11 01:45:06;;;;;;;;;9.33;9.33;;;;;16.94;78.46;101708.16;5080413;28;46065;-74
2022/06/11 01:47:33;;;;;;;;;9.00;9.00;;;;;16.97;78.48;101721.22;5080534;27;45377;-75
2022/06/11 01:49:59;;;;;;;;;11.00;11.00;;;;;16.94;78.65;101713.53;5080122;27;45358;-74
2022/06/11 01:52:25;;;;;;;;;12.00;10.00;;;;;16.94;78.31;101718.91;5080611;28;45466;-75
2022/06/11 01:55:21;;;;;;;;;12.33;12.33;;;;;16.92;78.56;101727.97;5080322;28;45157;-74
2022/06/11 01:58:18;;;;;;;;;8.67;8.67;;;;;16.89;78.29;101725.69;5078880;27;47683;-75
2022/06/11 02:01:19;;;;;;;;;11.33;10.67;;;;;16.87;78.35;101725.03;5080312;27;45370;-74
2022/06/11 02:04:03;;;;;;;;;12.00;10.67;;;;;16.78;78.53;101720.81;5072760;27;45473;-75
2022/06/11 02:06:54;;;;;;;;;12.00;11.00;;;;;16.85;78.25;101731.63;5080353;27;45351;-75
2022/06/11 02:09:36;;;;;;;;;11.00;11.00;;;;;16.83;78.49;101731.81;5079869;27;45389;-74
2022/06/11 02:12:16;;;;;;;;;14.00;13.00;;;;;16.75;78.59;101719.34;5080057;27;45218;-74
2022/06/11 02:14:51;;;;;;;;;12.00;12.00;;;;;16.74;78.89;101725.75;5080360;27;45410;-75
2022/06/11 02:17:24;;;;;;;;;13.00;12.33;;;;;16.74;78.97;101731.13;5079970;27;45335;-75
2022/06/11 02:20:02;;;;;;;;;11.00;11.00;;;;;16.72;78.93;101729.63;5079853;27;45418;-75
2022/06/11 02:22:34;;;;;;;;;13.67;13.67;;;;;16.69;78.66;101733.53;5079885;27;45315;-74
2022/06/11 02:25:11;;;;;;;;;11.67;11.67;;;;;16.67;78.90;101738.25;5080132;27;45278;-75
2022/06/11 02:27:39;;;;;;;;;12.67;12.67;;;;;16.65;79.18;101733.06;5079589;27;45397;-75
2022/06/11 02:30:08;;;;;;;;;11.67;10.67;;;;;16.63;79.33;101736.97;5079903;28;45314;-75
2022/06/11 02:32:34;;;;;;;;;9.67;9.67;;;;;16.61;79.49;101737.16;5078574;28;45409;-75
2022/06/11 02:35:08;;;;;;;;;12.33;12.33;;;;;16.57;79.47;101733.22;5065664;28;45312;-74
2022/06/11 02:37:38;;;;;;;;;12.33;11.67;;;;;16.58;79.45;101739.41;5079927;27;45348;-74
2022/06/11 02:40:10;;;;;;;;;12.00;11.67;;;;;16.53;79.60;101724.69;5077611;28;47702;-75
2022/06/11 02:42:36;;;;;;;;;13.67;11.67;;;;;16.55;79.58;101742.47;5095239;27;45396;-75
2022/06/11 02:45:02;;;;;;;;;10.67;10.67;;;;;16.50;79.41;101724.25;5079667;27;45440;-75
2022/06/11 02:47:27;;;;;;;;;13.00;12.00;;;;;16.56;79.33;101739.59;5079707;27;45363;-75
2022/06/11 02:49:53;;;;;;;;;13.67;13.00;;;;;16.53;79.21;101743.47;5079198;27;45322;-75
2022/06/11 02:52:21;;;;;;;;;9.33;9.33;;;;;16.53;79.05;101740.00;5079640;28;45365;-75
2022/06/11 02:54:49;;;;;;;;;13.00;12.00;;;;;16.46;79.26;101734.53;5095391;27;45366;-75
2022/06/11 02:57:25;;;;;;;;;14.67;13.00;;;;;16.49;79.29;101739.53;5079515;28;45281;-75
2022/06/11 02:59:52;;;;;;;;;12.67;12.67;;;;;16.46;79.83;101744.44;5079368;28;45516;-75
2022/06/11 03:02:18;;;;;;;;;13.00;13.00;;;;;16.43;79.49;101742.97;5079460;27;45308;-74
2022/06/11 03:04:43;;;;;;;;;13.00;12.67;;;;;16.39;79.16;101745.22;5087548;27;45412;-75
2022/06/11 03:07:09;;;;;;;;;12.00;12.00;;;;;16.31;79.49;101734.56;5080355;27;45477;-75
2022/06/11 03:09:37;;;;;;;;;13.33;13.00;;;;;16.36;79.19;101752.78;5079109;28;45295;-75
2022/06/11 03:12:04;;;;;;;;;13.67;13.67;;;;;16.27;79.19;101741.34;5079115;27;45341;-75
2022/06/11 03:14:29;;;;;;;;;14.00;14.00;;;;;16.26;79.64;101743.19;5079461;27;45363;-74
2022/06/11 03:16:55;;;;;;;;;14.00;14.00;;;;;16.25;79.56;101741.53;5079076;27;45260;-75
2022/06/11 03:19:21;;;;;;;;;11.33;11.33;;;;;16.29;79.88;101750.03;5079147;27;45252;-74
2022/06/11 03:21:53;;;;;;;;;9.33;9.33;;;;;16.30;79.56;101753.53;5079296;27;45328;-74
2022/06/11 03:24:20;;;;;;;;;13.00;12.33;;;;;16.28;79.63;101761.75;5079361;27;45392;-74
2022/06/11 03:26:46;;;;;;;;;13.67;12.00;;;;;16.20;79.97;101746.63;5079066;27;45326;-75
2022/06/11 03:29:11;;;;;;;;;13.67;12.00;;;;;16.25;79.70;101762.16;5078796;27;46199;-75
2022/06/11 03:31:37;;;;;;;;;9.67;9.00;;;;;16.20;79.89;101756.53;5079103;27;45499;-74
2022/06/11 03:34:03;;;;;;;;;12.00;12.00;;;;;16.18;79.75;101758.53;5077867;28;45344;-74
2022/06/11 03:36:29;;;;;;;;;11.00;9.33;;;;;16.19;79.84;101768.28;5078907;28;45350;-75
2022/06/11 03:38:55;;;;;;;;;10.00;9.33;;;;;16.12;79.97;101747.56;5078941;27;45273;-74
2022/06/11 03:41:21;;;;;;;;;13.00;13.00;;;;;16.10;79.85;101752.28;5078842;27;45319;-74
2022/06/11 03:43:49;;;;;;;;;12.33;11.67;;;;;16.12;79.87;101758.28;5078954;27;45272;-75
2022/06/11 03:46:14;;;;;;;;;15.67;14.67;;;;;16.07;80.32;101763.38;5078842;27;45354;-74
2022/06/11 03:48:40;;;;;;;;;12.33;12.33;;;;;16.09;79.94;101769.38;5094237;27;46008;-75
2022/06/11 03:51:07;;;;;;;;;13.33;13.33;;;;;16.13;80.04;101778.72;5078995;27;45311;-74
2022/06/11 03:53:35;;;;;;;;;13.33;13.33;;;;;16.10;80.50;101781.75;5079725;27;45315;-75
2022/06/11 03:56:02;;;;;;;;;13.00;13.00;;;;;16.08;80.35;101782.97;5082193;27;45436;-74
2022/06/11 03:58:27;;;;;;;;;13.00;13.00;;;;;16.03;80.58;101781.69;5081968;27;45394;-75
2022/06/11 04:03:38;;;;;;;;;10.67;9.67;;;;;16.05;80.58;101783.34;5082061;28;45322;-75
2022/06/11 04:06:05;;;;;;;;;15.00;13.33;;;;;16.06;80.79;101796.56;5091377;27;45536;-74
2022/06/11 04:08:31;;;;;;;;;13.00;12.67;;;;;16.01;80.65;101791.75;5081827;28;45652;-75
2022/06/11 04:10:57;;;;;;;;;12.00;11.33;;;;;16.01;80.68;101794.44;5082095;27;45349;-74
2022/06/11 04:13:24;;;;;;;;;10.33;10.33;;;;;16.03;81.08;101794.25;5082215;27;45349;-75
2022/06/11 04:15:51;;;;;;;;;15.00;14.00;;;;;16.03;80.71;101789.72;5082023;27;45303;-75
2022/06/11 04:18:33;;;;;;;;;17.33;17.00;;;;;16.14;80.71;101801.00;5081741;27;45364;-75
2022/06/11 04:21:02;;;;;;;;;13.33;13.33;;;;;16.07;80.71;101784.00;5082104;27;45362;-75
2022/06/11 04:23:29;;;;;;;;;13.00;13.00;;;;;16.17;80.75;101815.88;5081902;28;45323;-74
2022/06/11 04:26:00;;;;;;;;;13.67;13.67;;;;;16.17;80.67;101808.69;5081486;28;45425;-74
2022/06/11 04:28:28;;;;;;;;;15.33;15.00;;;;;16.18;80.63;101812.19;5081744;27;46116;-74
2022/06/11 04:30:55;;;;;;;;;17.67;17.33;;;;;16.12;80.45;101806.56;5080125;27;46730;-73
2022/06/11 04:33:20;;;;;;;;;19.67;18.67;;;;;16.13;80.30;101808.22;5081726;27;45367;-74
2022/06/11 04:35:45;;;;;;;;;18.00;18.00;;;;;16.10;80.29;101805.09;5081650;27;45394;-74
2022/06/11 04:38:12;;;;;;;;;17.00;17.00;;;;;16.11;80.28;101809.44;5081587;27;45263;-74
2022/06/11 04:40:37;;;;;;;;;20.67;19.33;;;;;16.12;80.59;101808.41;5081676;27;45361;-74
2022/06/11 04:43:03;;;;;;;;;23.00;22.33;;;;;16.14;80.65;101815.22;5081437;27;45430;-74
2022/06/11 04:45:28;;;;;;;;;26.00;26.00;;;;;16.19;80.78;101824.59;5097316;27;46136;-74
2022/06/11 04:47:54;;;;;;;;;24.67;24.33;;;;;16.20;80.84;101826.25;5081355;27;45354;-74
2022/06/11 04:50:22;;;;;;;;;25.67;24.33;;;;;16.20;80.51;101824.41;5081610;27;45290;-74
2022/06/11 04:52:48;;;;;;;;;27.33;26.33;;;;;16.18;80.52;101831.78;5081729;27;45223;-74
2022/06/11 04:55:14;;;;;;;;;29.33;25.67;;;;;16.21;80.59;101834.09;5081095;27;45441;-74
2022/06/11 04:57:40;;;;;;;;;27.67;26.67;;;;;16.19;80.61;101833.44;5096852;27;46317;-74
2022/06/11 05:00:08;;;;;;;;;30.00;28.67;;;;;16.19;81.03;101836.13;5096893;27;45276;-74
2022/06/11 05:02:33;;;;;;;;;28.67;28.00;;;;;16.23;80.80;101839.28;5081539;27;45302;-73
2022/06/11 05:04:59;;;;;;;;;32.67;29.00;;;;;16.30;81.15;101831.31;5089775;27;45340;-74
2022/06/11 05:07:24;;;;;;;;;30.00;28.33;;;;;16.29;81.08;101827.81;5081346;27;45414;-74
2022/06/11 05:09:50;;;;;;;;;27.33;26.00;;;;;16.37;81.04;101838.44;5081116;27;45236;-74
2022/06/11 05:12:15;;;;;;;;;26.00;24.00;;;;;16.39;80.93;101840.94;5096829;27;45288;-74
2022/06/11 05:14:41;;;;;;;;;59.75;49.00;;;;;16.40;81.00;101837.22;5081202;27;45227;-77
2022/06/11 05:17:07;;;;;;;;;40.00;34.25;;;;;16.49;81.01;101843.34;5080925;27;45437;-76
2022/06/11 05:19:33;;;;;;;;;28.33;27.67;;;;;16.46;81.00;101836.50;5080824;28;45273;-77
2022/06/11 05:21:59;;;;;;;;;26.67;25.00;;;;;16.56;81.11;101841.59;5080900;27;45273;-77
2022/06/11 05:24:25;;;;;;;;;24.67;24.67;;;;;16.61;81.43;101843.72;5096812;27;47184;-76
2022/06/11 05:26:55;;;;;;;;;28.00;27.67;;;;;16.64;81.14;101836.09;5080714;27;45360;-77
2022/06/11 05:29:44;;;;;;;;;29.33;27.33;;;;;16.71;81.54;101838.88;5096336;27;45779;-77
2022/06/11 05:32:10;;;;;;;;;28.67;27.67;;;;;16.72;81.45;101835.16;5080563;27;45516;-76
2022/06/11 05:34:36;;;;;;;;;24.00;24.00;;;;;16.81;81.24;101837.72;5080385;27;45453;-77
2022/06/11 05:37:02;;;;;;;;;25.00;23.00;;;;;16.83;81.28;101827.63;5080719;27;46053;-76
2022/06/11 05:39:27;;;;;;;;;25.67;25.33;;;;;16.94;81.58;101834.38;5080487;27;45333;-77
2022/06/11 05:41:53;;;;;;;;;24.33;24.33;;;;;17.01;82.05;101841.47;5080759;27;45353;-77
2022/06/11 05:44:18;;;;;;;;;23.67;22.00;;;;;17.03;81.50;101831.34;5080431;27;45304;-77
2022/06/11 05:46:44;;;;;;;;;20.00;20.00;;;;;17.14;81.93;101832.75;5080387;27;45998;-77
2022/06/11 05:49:16;;;;;;;;;20.67;20.33;;;;;17.18;81.97;101832.38;5080354;27;45279;-77
2022/06/11 05:51:46;;;;;;;;;22.00;22.00;;;;;17.26;82.00;101835.75;5080531;27;45365;-77
2022/06/11 05:54:19;;;;;;;;;25.00;24.00;;;;;17.34;81.61;101839.31;5080411;28;45813;-77
2022/06/11 05:56:46;;;;;;;;;23.67;23.33;;;;;17.37;81.83;101833.56;5095761;27;47694;-77
2022/06/11 05:59:17;;;;;;;;;22.00;20.67;;;;;17.44;82.04;101830.91;5080539;27;45263;-77
2022/06/11 06:01:43;;;;;;;;;20.67;19.67;;;;;17.50;81.73;101833.69;5080283;27;45373;-77
2022/06/11 06:04:09;;;;;;;;;22.33;22.33;;;;;17.59;81.67;101838.91;5083458;27;45413;-77
2022/06/11 06:06:34;;;;;;;;;20.33;17.33;;;;;17.61;82.01;101832.31;5086226;27;46131;-77
2022/06/11 06:09:00;;;;;;;;;21.33;20.00;;;;;17.71;82.36;101842.72;5095898;27;45320;-77
2022/06/11 06:11:26;;;;;;;;;22.00;22.00;;;;;17.74;81.95;101838.81;5075656;28;45376;-77
2022/06/11 06:13:52;;;;;;;;;30.67;27.00;;;;;17.84;81.51;101846.56;5076744;28;46199;-77
2022/06/11 06:16:24;;;;;;;;;28.33;27.33;;;;;17.90;81.76;101843.09;5077968;28;47382;-76
2022/06/11 06:18:50;;;;;;;;;24.67;22.33;;;;;18.02;81.59;101848.75;5079660;27;45399;-76
2022/06/11 06:21:18;;;;;;;;;19.00;18.00;;;;;18.09;81.79;101840.69;5080232;27;45274;-76
2022/06/11 06:23:44;;;;;;;;;18.67;18.00;;;;;18.10;81.35;101828.91;5079882;27;45274;-76
2022/06/11 06:26:09;;;;;;;;;18.33;18.00;;;;;18.24;82.13;101849.53;5079935;27;45595;-77
2022/06/11 06:28:35;;;;;;;;;17.67;17.33;;;;;18.32;81.63;101853.06;5079896;27;45330;-76
2022/06/11 06:31:02;;;;;;;;;16.33;16.33;;;;;18.38;81.50;101850.41;5079749;27;45358;-76
2022/06/11 06:33:30;;;;;;;;;17.33;15.33;;;;;18.50;81.53;101847.16;5078480;28;45825;-76
2022/06/11 06:35:56;;;;;;;;;15.00;15.00;;;;;18.49;81.64;101832.03;5079661;27;45345;-77
2022/06/11 06:38:21;;;;;;;;;15.33;15.33;;;;;18.60;81.49;101844.09;5079643;28;45247;-76
2022/06/11 06:40:46;;;;;;;;;16.00;15.67;;;;;18.65;81.18;101844.31;5079750;27;45836;-78
2022/06/11 06:43:12;;;;;;;;;19.33;15.33;;;;;18.77;81.36;101852.66;5079636;27;45310;-77
2022/06/11 06:45:37;;;;;;;;;15.33;14.00;;;;;18.82;81.48;101838.56;5079766;27;46664;-76
2022/06/11 06:48:03;;;;;;;;;14.67;14.33;;;;;18.94;81.28;101842.31;5076093;28;45266;-77
2022/06/11 06:50:29;;;;;;;;;15.67;15.67;;;;;18.98;81.21;101832.81;5080030;27;45301;-76
2022/06/11 06:52:55;;;;;;;;;11.33;11.00;;;;;19.16;81.23;101844.91;5079656;27;45231;-77
2022/06/11 06:55:21;;;;;;;;;9.33;9.33;;;;;19.18;81.22;101846.34;5079432;27;46203;-77
2022/06/11 06:57:47;;;;;;;;;12.00;12.00;;;;;19.30;81.36;101856.50;5079537;27;45371;-76
2022/06/11 07:00:13;;;;;;;;;12.33;12.33;;;;;19.45;81.12;101863.56;5079459;27;45568;-76
2022/06/11 07:02:38;;;;;;;;;10.00;10.00;;;;;19.57;80.75;101858.41;5079616;27;45389;-76
2022/06/11 07:05:04;;;;;;;;;13.00;13.00;;;;;19.63;80.26;101858.38;5088456;27;45810;-77
2022/06/11 07:07:30;;;;;;;;;9.00;8.33;;;;;19.70;80.00;101852.16;5078023;28;45865;-77
2022/06/11 07:09:57;;;;;;;;;11.00;11.00;;;;;19.74;79.82;101853.41;5074744;28;45629;-78
2022/06/11 07:12:22;;;;;;;;;8.00;7.67;;;;;19.78;79.77;101860.03;5078199;28;45326;-77
2022/06/11 07:14:48;;;;;;;;;12.00;11.00;;;;;19.85;79.86;101851.94;5079253;27;45393;-76
2022/06/11 07:17:16;;;;;;;;;12.00;11.67;;;;;19.73;78.90;101830.16;5079332;27;45213;-76
2022/06/11 07:19:51;;;;;;;;;12.33;12.33;;;;;19.95;79.04;101860.44;5094995;27;45405;-77
2022/06/11 07:22:22;;;;;;;;;12.67;12.67;;;;;19.98;79.09;101854.63;5079119;27;45317;-76
2022/06/11 07:24:48;;;;;;;;;10.00;10.00;;;;;20.03;78.94;101859.41;5079169;27;45244;-76
2022/06/11 07:27:19;;;;;;;;;9.00;9.00;;;;;20.00;78.39;101847.16;5080841;27;45425;-77
2022/06/11 07:29:49;;;;;;;;;12.00;11.33;;;;;20.10;77.92;101851.28;5083013;27;45280;-77
2022/06/11 07:32:17;;;;;;;;;12.00;12.00;;;;;20.08;78.61;101845.28;5082727;27;45418;-76
2022/06/11 07:34:43;;;;;;;;;10.33;10.33;;;;;20.10;78.48;101846.72;5082128;27;45406;-77
2022/06/11 07:37:09;;;;;;;;;12.33;12.33;;;;;20.21;78.38;101849.81;5082839;27;45327;-76
2022/06/11 07:39:35;;;;;;;;;12.33;12.33;;;;;20.25;77.78;101857.28;5082618;28;45363;-77
2022/06/11 07:42:01;;;;;;;;;14.67;12.33;;;;;20.16;77.85;101835.09;5081102;28;46477;-76
2022/06/11 07:44:26;;;;;;;;;11.00;11.00;;;;;20.31;77.74;101853.72;5077791;28;48232;-77
2022/06/11 07:46:51;;;;;;;;;13.67;13.67;;;;;20.31;77.83;101834.84;5082064;28;45351;-77
2022/06/11 07:49:17;;;;;;;;;10.00;10.00;;;;;20.36;77.93;101844.16;5082394;27;45322;-77
2022/06/11 07:51:42;;;;;;;;;10.33;10.33;;;;;20.41;77.71;101850.56;5082362;27;45338;-76
2022/06/11 07:54:07;;;;;;;;;14.00;12.67;;;;;20.50;77.33;101858.44;5082347;27;45358;-77
2022/06/11 07:56:33;;;;;;;;;11.67;11.67;;;;;20.55;77.34;101847.81;5082155;27;45457;-76
2022/06/11 07:58:58;;;;;;;;;11.00;10.67;;;;;20.65;77.57;101847.38;5082482;27;45517;-77
2022/06/11 08:01:24;;;;;;;;;12.00;12.00;;;;;20.77;77.49;101859.13;5082416;27;45418;-76
2022/06/11 08:03:49;;;;;;;;;10.33;10.33;;;;;20.81;76.54;101843.34;5082440;27;46098;-77
2022/06/11 08:06:15;;;;;;;;;11.00;11.00;;;;;20.81;76.80;101844.16;5091304;27;45442;-76
2022/06/11 08:08:40;;;;;;;;;11.00;11.00;;;;;20.85;76.15;101855.34;5082054;27;45251;-78
2022/06/11 08:11:07;;;;;;;;;9.67;9.67;;;;;20.82;76.46;101853.09;5077248;28;46143;-76
2022/06/11 08:13:32;;;;;;;;;10.33;10.33;;;;;20.87;76.57;101855.97;5077211;28;46192;-77
2022/06/11 08:16:00;;;;;;;;;11.67;10.67;;;;;20.93;76.45;101857.00;5081965;28;45491;-78
2022/06/11 08:18:27;;;;;;;;;11.00;10.00;;;;;21.00;76.09;101854.25;5082078;27;45304;-77
2022/06/11 08:20:53;;;;;;;;;9.33;8.33;;;;;21.10;76.08;101853.78;5081750;27;45248;-77
2022/06/11 08:23:20;;;;;;;;;11.00;11.00;;;;;21.16;75.73;101848.34;5081908;28;46056;-77
2022/06/11 08:25:46;;;;;;;;;8.33;8.33;;;;;21.21;75.47;101838.72;5081517;27;45367;-77
2022/06/11 08:28:13;;;;;;;;;10.00;10.00;;;;;21.37;74.94;101842.78;5097742;27;45273;-78
2022/06/11 08:30:39;;;;;;;;;11.33;10.67;;;;;21.48;74.75;101854.75;5081715;27;45402;-77
2022/06/11 08:33:04;;;;;;;;;9.33;9.00;;;;;21.54;74.58;101860.13;5081275;27;45869;-77
2022/06/11 08:35:31;;;;;;;;;9.33;9.33;;;;;21.62;74.92;101850.06;5081881;27;45310;-77
2022/06/11 08:37:58;;;;;;;;;10.00;10.00;;;;;21.68;74.74;101847.31;5096940;27;45713;-76
2022/06/11 08:40:46;;;;;;;;;9.33;8.33;;;;;21.84;74.08;101847.00;5081681;28;45473;-77
2022/06/11 08:43:23;;;;;;;;;8.00;8.00;;;;;22.02;73.00;101849.69;5081281;27;47434;-77
2022/06/11 08:45:58;;;;;;;;;8.67;8.67;;;;;22.07;72.94;101846.31;5081685;27;45325;-76
2022/06/11 08:48:36;;;;;;;;;9.33;9.33;;;;;22.14;72.96;101851.66;5081283;28;45375;-76
2022/06/11 08:51:05;;;;;;;;;9.00;9.00;;;;;22.18;72.33;101852.88;5081525;27;45315;-77
2022/06/11 08:53:33;;;;;;;;;11.00;10.67;;;;;22.23;72.40;101849.50;5081140;27;45394;-77
2022/06/11 08:55:58;;;;;;;;;9.67;9.00;;;;;22.32;71.48;101845.41;5081372;27;45308;-76
2022/06/11 08:58:45;;;;;;;;;7.00;7.00;;;;;22.35;71.35;101842.25;5081418;27;45375;-77
2022/06/11 09:01:31;;;;;;;;;10.33;10.00;;;;;22.48;71.23;101852.09;5081506;27;45281;-77
2022/06/11 09:04:23;;;;;;;;;11.67;11.00;;;;;22.57;71.01;101844.47;5082808;27;45868;-76
2022/06/11 09:07:10;;;;;;;;;8.00;7.67;;;;;22.55;71.12;101825.75;5082536;27;45468;-76
2022/06/11 09:09:50;;;;;;;;;8.00;8.00;;;;;22.67;71.02;101842.09;5080998;28;45492;-77
2022/06/11 09:12:34;;;;;;;;;11.00;11.00;;;;;22.75;69.79;101834.69;5080895;27;45399;-77
2022/06/11 09:15:21;;;;;;;;;8.67;7.67;;;;;22.79;69.71;101835.88;5080991;28;46192;-76
2022/06/11 09:18:13;;;;;;;;;6.67;6.67;;;;;22.85;69.98;101837.66;5081067;28;45372;-78
2022/06/11 09:21:01;;;;;;;;;7.00;7.00;;;;;22.97;69.88;101834.16;5079711;27;45537;-78
2022/06/11 09:24:00;;;;;;;;;7.67;7.67;;;;;23.03;68.93;101835.94;5080859;27;45515;-77
2022/06/11 09:27:00;;;;;;;;;7.00;7.00;;;;;23.08;68.58;101834.19;5080842;28;45375;-77
2022/06/11 09:29:41;;;;;;;;;7.00;7.00;;;;;23.13;68.65;101825.34;5080516;28;45382;-78
2022/06/11 09:32:19;;;;;;;;;5.67;4.67;;;;;23.16;68.64;101819.47;5081039;27;45267;-77
2022/06/11 09:34:56;;;;;;;;;6.33;6.33;;;;;23.29;68.84;101828.47;5080429;27;45353;-78
2022/06/11 09:37:36;;;;;;;;;8.00;8.00;;;;;23.37;68.48;101813.75;5081024;27;45380;-78
2022/06/11 09:40:25;;;;;;;;;6.67;6.67;;;;;23.52;67.68;101833.09;5080609;28;45206;-77
2022/06/11 09:43:12;;;;;;;;;7.00;6.00;;;;;23.58;66.95;101836.75;5080610;28;45348;-78
2022/06/11 09:45:48;;;;;;;;;8.00;7.00;;;;;23.56;66.84;101839.69;5080721;28;45544;-78
2022/06/11 09:48:49;;;;;;;;;6.00;6.00;;;;;23.51;66.24;101833.31;5080039;27;46085;-76
2022/06/11 09:51:43;;;;;;;;;7.00;7.00;;;;;23.42;66.70;101841.00;5079340;28;45392;-79
2022/06/11 09:54:37;;;;;;;;;5.33;5.33;;;;;23.38;65.99;101831.69;5080720;28;45231;-77
2022/06/11 09:57:17;;;;;;;;;7.67;5.00;;;;;23.39;65.81;101831.44;5078038;27;45696;-77
2022/06/11 09:59:49;;;;;;;;;5.00;5.00;;;;;23.47;67.01;101826.72;5080427;27;45391;-78
2022/06/11 10:02:37;;;;;;;;;7.00;7.00;;;;;23.67;66.69;101837.22;5080525;27;45336;-78
2022/06/11 10:05:13;;;;;;;;;6.00;5.00;;;;;23.79;66.64;101827.19;5089577;27;45486;-76
2022/06/11 10:07:44;;;;;;;;;5.33;3.67;;;;;23.98;65.92;101823.50;5080188;27;45357;-77
2022/06/11 10:10:16;;;;;;;;;5.00;5.00;;;;;24.19;65.51;101827.50;5080126;27;46297;-78
2022/06/11 10:12:49;;;;;;;;;6.33;5.33;;;;;24.34;64.40;101832.44;5080294;27;45238;-78
2022/06/11 10:15:23;;;;;;;;;7.00;6.67;;;;;24.41;64.33;101832.28;5096003;27;45414;-77
2022/06/11 10:17:53;;;;;;;;;6.00;6.00;;;;;24.43;64.38;101833.69;5079931;27;45423;-77
2022/06/11 10:20:22;;;;;;;;;6.00;6.00;;;;;24.42;62.86;101829.31;5078752;28;46383;-77
2022/06/11 10:23:12;;;;;;;;;6.00;6.00;;;;;24.44;63.29;101834.50;5080146;27;45366;-77
2022/06/11 10:25:48;;;;;;;;;5.00;5.00;;;;;24.39;62.41;101829.00;5079892;28;45297;-78
2022/06/11 10:28:26;;;;;;;;;5.00;5.00;;;;;24.39;62.81;101837.13;5078716;27;46216;-77
2022/06/11 10:30:56;;;;;;;;;5.33;5.33;;;;;24.51;62.96;101834.38;5095451;27;47336;-77
2022/06/11 10:33:32;;;;;;;;;5.00;5.00;;;;;24.61;62.03;101834.56;5067086;28;45260;-77
2022/06/11 10:36:18;;;;;;;;;4.67;4.67;;;;;24.80;61.79;101840.63;5075377;28;45208;-78
2022/06/11 10:39:01;;;;;;;;;6.00;6.00;;;;;24.88;60.67;101830.44;5068286;28;45413;-77
2022/06/11 10:41:41;;;;;;;;;5.00;5.00;;;;;25.01;60.57;101829.31;5078147;28;48567;-77
2022/06/11 10:44:28;;;;;;;;;7.67;7.67;;;;;25.22;59.61;101838.63;5079565;28;45374;-77
2022/06/11 10:46:53;;;;;;;;;6.67;5.33;;;;;25.38;59.78;101822.56;5079825;27;45347;-76
2022/06/11 10:49:22;;;;;;;;;5.00;5.00;;;;;25.57;59.17;101826.66;5095058;27;46778;-77
2022/06/11 10:52:37;;;;;;;;;7.33;6.33;;;;;25.74;58.54;101830.44;5079578;27;46040;-77
2022/06/11 10:55:06;;;;;;;;;6.00;5.67;;;;;25.95;58.45;101826.09;5024441;27;45501;-77
2022/06/11 10:57:33;;;;;;;;;4.00;4.00;;;;;26.16;57.88;101826.34;5079890;27;45302;-79
2022/06/11 11:00:20;;;;;;;;;5.67;5.67;;;;;26.38;56.57;101833.72;5079140;28;45501;-78
2022/06/11 11:02:52;;;;;;;;;8.00;6.00;;;;;26.53;56.04;101831.16;5078465;27;46130;-76
2022/06/11 11:05:19;;;;;;;;;6.00;6.00;;;;;26.69;56.29;101825.84;5088926;27;45337;-77
2022/06/11 11:07:54;;;;;;;;;6.00;6.00;;;;;26.95;54.67;101826.94;5079471;27;45326;-76
2022/06/11 11:10:30;;;;;;;;;4.67;4.67;;;;;27.09;54.34;101816.41;5079091;28;45437;-76
2022/06/11 11:12:59;;;;;;;;;10.00;8.00;;;;;27.32;53.24;101830.78;5079325;27;45329;-76
2022/06/11 11:15:28;;;;;;;;;6.67;6.67;;;;;27.53;53.70;101827.38;5077970;28;45916;-77
2022/06/11 11:18:00;;;;;;;;;5.67;4.67;;;;;27.79;51.91;101833.00;5074686;28;45335;-78
2022/06/11 11:20:43;;;;;;;;;4.00;4.00;;;;;27.89;52.09;101826.78;5075238;28;45244;-77
2022/06/11 11:23:22;;;;;;;;;7.00;7.00;;;;;28.01;51.90;101830.09;5079223;27;45283;-76
2022/06/11 11:26:06;;;;;;;;;6.33;6.33;;;;;28.20;50.34;101825.00;5077620;28;46320;-78
2022/06/11 11:28:43;;;;;;;;;7.67;7.67;;;;;28.35;50.17;101821.47;5079366;27;45772;-79
2022/06/11 11:31:20;;;;;;;;;8.00;8.00;;;;;28.43;49.36;101811.13;5079163;27;45419;-79
2022/06/11 11:34:00;;;;;;;;;4.67;4.00;;;;;28.64;48.26;101811.16;5078844;27;45226;-77
2022/06/11 11:36:27;;;;;;;;;5.67;5.67;;;;;28.86;48.57;101817.19;5079032;27;45401;-77